»·PEaware :: N342LP KPMD-KSNA

N342LP :: KPMD-KSNA

FLIGHT INFORMATION

Flight Status: Arrived
Operator: Privately registered:
United States
More flights under this callsign
Pilot: Dante R. (31808)
Aircraft: CESSNA 172 SKYHAWK
(C172)
More flights by this aircraft type
Origin: KPMD Palmdale AF Plant 42
United States
Destination: KSNA John Wayne-Orange Co
United States
More flights between these airports :: More routes between these airports
Route: PMD V201 BERRI V459 SLI
File this flight plan on PilotEdge
Remarks: TEC Route EDWP2
Altitude:
(Current/Filed)
9,000ft
Speed:
(Current/Filed)
110kts
Departed: 03-Nov-20 02:49 PM
Arrived: 03-Nov-20 03:32 PM
Distance/Time
Traveled:
58nm/0:43
Distance/Time
To Go:
Arrived

Flight Plot

Page will automatically refresh every two minutes.


Map Options




Map Legend


Flown Route
Filed Route
Departure Airport
Arrival Airport
Navaid (VOR, NDB)
Fix

Horizontal Profiles

Position Reports

Time Latitude Longitude Heading Altitude Ground
Speed
03-Nov-20 14:12 34.635402 -118.080417 78 2517ft 0kts
03-Nov-20 14:13 34.635402 -118.080417 78 2517ft 0kts
03-Nov-20 14:14 34.635402 -118.080417 78 2517ft 0kts
03-Nov-20 14:15 34.635402 -118.080417 78 2517ft 0kts
03-Nov-20 14:16 34.635402 -118.080417 78 2517ft 0kts
03-Nov-20 14:17 34.635402 -118.080417 78 2517ft 0kts
03-Nov-20 14:18 34.635402 -118.080417 78 2517ft 0kts
03-Nov-20 14:19 34.635402 -118.080417 78 2517ft 0kts
03-Nov-20 14:20 34.635402 -118.080417 78 2517ft 0kts
03-Nov-20 14:21 34.635402 -118.080417 78 2517ft 0kts
03-Nov-20 14:22 34.635402 -118.080417 78 2517ft 0kts
03-Nov-20 14:23 34.635402 -118.080417 78 2517ft 0kts
03-Nov-20 14:24 34.635402 -118.080417 78 2517ft 0kts
03-Nov-20 14:25 34.635402 -118.080417 78 2517ft 0kts
03-Nov-20 14:26 34.635402 -118.080417 78 2517ft 0kts
03-Nov-20 14:27 34.635402 -118.080417 78 2517ft 0kts
03-Nov-20 14:28 34.635402 -118.080417 78 2517ft 0kts
03-Nov-20 14:29 34.635402 -118.080417 78 2517ft 0kts
03-Nov-20 14:30 34.635402 -118.080417 78 2517ft 0kts
03-Nov-20 14:31 34.635402 -118.080417 78 2517ft 0kts
03-Nov-20 14:32 34.635402 -118.080417 78 2517ft 0kts
03-Nov-20 14:33 34.635402 -118.080417 78 2517ft 0kts
03-Nov-20 14:34 34.635402 -118.080417 78 2517ft 0kts
03-Nov-20 14:35 34.635402 -118.080417 78 2517ft 0kts
03-Nov-20 14:36 34.635402 -118.080417 78 2517ft 0kts
03-Nov-20 14:37 34.635402 -118.080417 78 2517ft 0kts
03-Nov-20 14:38 34.635402 -118.080417 78 2517ft 0kts
03-Nov-20 14:39 34.635402 -118.080417 78 2518ft 0kts
03-Nov-20 14:40 34.635402 -118.080417 78 2518ft 0kts
03-Nov-20 14:41 34.635402 -118.080417 78 2518ft 0kts
03-Nov-20 14:42 34.635405 -118.080401 78 2518ft 0kts
03-Nov-20 14:43 34.635530 -118.075235 86 2518ft 23kts
03-Nov-20 14:44 34.633740 -118.073471 175 2518ft 0kts
03-Nov-20 14:45 34.633740 -118.073471 175 2518ft 0kts
03-Nov-20 14:46 34.633740 -118.073471 175 2518ft 0kts
03-Nov-20 14:47 34.632628 -118.075444 267 2518ft 39kts
03-Nov-20 14:48 34.630824 -118.102496 264 2904ft 87kts
03-Nov-20 14:49 34.639700 -118.125788 355 3594ft 85kts
03-Nov-20 14:50 34.649320 -118.100436 97 4198ft 96kts
03-Nov-20 14:51 34.634431 -118.074295 137 4922ft 96kts
03-Nov-20 14:52 34.609428 -118.076414 212 5563ft 102kts
03-Nov-20 14:53 34.583646 -118.091749 203 6184ft 104kts
03-Nov-20 14:54 34.556728 -118.105400 199 6778ft 105kts
03-Nov-20 14:55 34.528711 -118.115728 198 7397ft 101kts
03-Nov-20 14:56 34.504098 -118.131747 212 7974ft 100kts
03-Nov-20 14:57 34.480108 -118.149633 207 8514ft 101kts
03-Nov-20 14:58 34.453182 -118.162620 200 8942ft 110kts
03-Nov-20 14:59 34.422683 -118.177564 204 9095ft 130kts
03-Nov-20 15:00 34.388496 -118.195893 204 9069ft 129kts
03-Nov-20 15:01 34.358864 -118.211774 204 9061ft 107kts
03-Nov-20 15:02 34.332652 -118.225888 204 9061ft 103kts
03-Nov-20 15:03 34.305396 -118.240644 204 9055ft 111kts
03-Nov-20 15:04 34.276704 -118.256243 204 9048ft 114kts
03-Nov-20 15:05 34.247655 -118.272109 204 9043ft 115kts
03-Nov-20 15:06 34.218260 -118.287204 202 9041ft 115kts
03-Nov-20 15:07 34.187796 -118.285055 164 9041ft 114kts
03-Nov-20 15:08 34.157828 -118.273076 156 9042ft 114kts
03-Nov-20 15:09 34.128572 -118.258042 156 9042ft 114kts
03-Nov-20 15:10 34.099423 -118.243075 156 9042ft 114kts
03-Nov-20 15:11 34.069852 -118.228091 156 9018ft 115kts
03-Nov-20 15:12 34.040790 -118.212456 149 9017ft 114kts
03-Nov-20 15:13 34.013165 -118.193273 149 9015ft 114kts
03-Nov-20 15:14 33.981449 -118.196399 199 8616ft 131kts
03-Nov-20 15:15 33.947220 -118.210892 200 7918ft 130kts
03-Nov-20 15:16 33.913245 -118.218439 142 7207ft 130kts
03-Nov-20 15:17 33.894478 -118.181905 119 6310ft 127kts
03-Nov-20 15:18 33.876930 -118.145422 119 5408ft 126kts
03-Nov-20 15:19 33.859413 -118.108972 119 4509ft 124kts
03-Nov-20 15:20 33.843629 -118.076021 119 4052ft 102kts
03-Nov-20 15:21 33.830056 -118.047599 119 4009ft 99kts
03-Nov-20 15:22 33.815013 -118.015835 119 3678ft 116kts
03-Nov-20 15:23 33.798937 -117.981205 120 3187ft 120kts
03-Nov-20 15:24 33.783337 -117.946648 119 2944ft 103kts
03-Nov-20 15:25 33.770484 -117.917165 120 2781ft 107kts
03-Nov-20 15:27 33.755925 -117.883118 120 2314ft 119kts
03-Nov-20 15:28 33.740918 -117.848484 127 2025ft 109kts
03-Nov-20 15:29 33.717322 -117.840466 213 1625ft 99kts
03-Nov-20 15:30 33.694298 -117.856979 209 630ft 95kts
03-Nov-20 15:31 33.673481 -117.870217 208 59ft 57kts
03-Nov-20 15:32 33.672480 -117.872121 331 59ft 0kts
03-Nov-20 15:33 33.673259 -117.871874 28 59ft 20kts
03-Nov-20 15:34 33.676250 -117.870809 177 59ft 0kts
03-Nov-20 15:35 33.676250 -117.870809 177 59ft 0kts
03-Nov-20 15:36 33.676250 -117.870809 177 59ft 0kts
03-Nov-20 15:37 33.676250 -117.870809 177 59ft 0kts
03-Nov-20 15:38 33.676250 -117.870809 177 59ft 0kts
03-Nov-20 15:39 33.676250 -117.870809 177 59ft 0kts
03-Nov-20 15:40 33.676250 -117.870809 177 59ft 0kts
03-Nov-20 15:41 33.676250 -117.870809 177 59ft 0kts
03-Nov-20 15:42 33.676250 -117.870809 177 59ft 0kts
03-Nov-20 15:42 33.676250 -117.870809 177 59ft 0kts
03-Nov-20 15:44 33.676250 -117.870809 177 59ft 0kts
03-Nov-20 15:44 33.676250 -117.870809 177 59ft 0kts
03-Nov-20 15:46 33.676250 -117.870809 177 59ft 0kts
03-Nov-20 15:46 33.676250 -117.870809 177 59ft 0kts

Navigation Log

Ident Type
Flight plan parsing failed, navigation log unavailable